createdAt,value
2017-12-03T00:00:47.238Z,94787.44
2017-12-03T00:03:14.742Z,94781.25
2017-12-03T00:05:42.134Z,94781.72
2017-12-03T00:08:09.546Z,94784.23
2017-12-03T00:10:36.928Z,94776.64
2017-12-03T00:13:04.331Z,94770.02
2017-12-03T00:15:31.703Z,94769.42
2017-12-03T00:17:59.113Z,94757.95
2017-12-03T00:20:26.851Z,94762.50
2017-12-03T00:22:54.279Z,94745.84
2017-12-03T00:25:21.648Z,94745.72
2017-12-03T00:27:49.038Z,94730.55
2017-12-03T00:30:16.487Z,94726.00
2017-12-03T00:32:44.082Z,94728.65
2017-12-03T00:35:11.577Z,94746.22
2017-12-03T00:37:39.070Z,94739.42
2017-12-03T00:40:06.561Z,94748.69
2017-12-03T00:42:34.100Z,94745.32
2017-12-03T00:45:01.624Z,94750.75
2017-12-03T00:47:28.989Z,94760.80
2017-12-03T00:49:56.390Z,94738.02
2017-12-03T00:52:23.826Z,94736.70
2017-12-03T00:54:51.250Z,94721.78
2017-12-03T00:57:18.643Z,94721.53
2017-12-03T00:59:46.058Z,94734.94
2017-12-03T01:02:13.500Z,94749.48
2017-12-03T01:04:40.935Z,94717.33
2017-12-03T01:07:08.345Z,94713.34
2017-12-03T01:09:35.784Z,94704.50
2017-12-03T01:12:03.210Z,94703.61
2017-12-03T01:14:30.716Z,94694.69
2017-12-03T01:16:58.123Z,94680.34
2017-12-03T01:19:25.589Z,94672.02
2017-12-03T01:21:53.071Z,94674.41
2017-12-03T01:24:20.459Z,94677.73
2017-12-03T01:26:47.907Z,94676.39
2017-12-03T01:29:15.277Z,94660.13
2017-12-03T01:31:42.808Z,94663.70
2017-12-03T01:34:10.216Z,94647.19
2017-12-03T01:36:37.685Z,94659.72
2017-12-03T01:39:05.173Z,94665.97
2017-12-03T01:41:32.722Z,94670.88
2017-12-03T01:44:00.135Z,94683.16
2017-12-03T01:46:27.657Z,94691.47
2017-12-03T01:48:55.066Z,94662.89
2017-12-03T01:51:22.450Z,94676.23
2017-12-03T01:53:49.883Z,94665.95
2017-12-03T01:56:17.275Z,94665.00
2017-12-03T01:58:44.822Z,94661.47
2017-12-03T02:01:12.233Z,94659.54
2017-12-03T02:03:39.807Z,94648.66
2017-12-03T02:06:07.206Z,94617.39
2017-12-03T02:08:34.619Z,94617.14
2017-12-03T02:11:02.055Z,94611.47
2017-12-03T02:13:29.456Z,94618.44
2017-12-03T02:15:56.869Z,94606.42
2017-12-03T02:18:24.289Z,94592.34
2017-12-03T02:20:51.732Z,94582.99
2017-12-03T02:23:19.084Z,94587.01
2017-12-03T02:25:46.485Z,94588.00
2017-12-03T02:28:13.999Z,94581.90
2017-12-03T02:30:41.444Z,94594.89
2017-12-03T02:33:08.818Z,94587.08
2017-12-03T02:35:36.259Z,94572.94
2017-12-03T02:38:03.647Z,94560.61
2017-12-03T02:40:31.058Z,94567.64
2017-12-03T02:42:58.481Z,94571.08
2017-12-03T02:45:25.864Z,94564.79
2017-12-03T02:47:53.267Z,94577.89
2017-12-03T02:50:20.627Z,94595.41
2017-12-03T02:52:48.154Z,94577.93
2017-12-03T02:55:15.543Z,94579.80
2017-12-03T02:57:43.325Z,94584.91
2017-12-03T03:00:10.702Z,94581.84
2017-12-03T03:02:38.151Z,94564.47
2017-12-03T03:05:05.595Z,94532.89
2017-12-03T03:07:33.002Z,94537.54
2017-12-03T03:10:00.447Z,94530.27
2017-12-03T03:12:28.030Z,94533.71
2017-12-03T03:14:55.410Z,94541.11
2017-12-03T03:17:22.858Z,94529.62
2017-12-03T03:19:50.271Z,94530.13
2017-12-03T03:22:18.264Z,94526.53
2017-12-03T03:24:45.747Z,94531.84
2017-12-03T03:27:13.116Z,94521.23
2017-12-03T03:29:40.559Z,94522.22
2017-12-03T03:32:07.937Z,94521.19
2017-12-03T03:34:35.356Z,94520.08
2017-12-03T03:37:02.727Z,94533.53
2017-12-03T03:39:30.144Z,94524.05
2017-12-03T03:41:57.640Z,94522.58
2017-12-03T03:44:25.055Z,94517.41
2017-12-03T03:46:52.467Z,94514.78
2017-12-03T03:49:19.838Z,94525.88
2017-12-03T03:51:47.259Z,94522.89
2017-12-03T03:54:14.651Z,94513.77
2017-12-03T03:56:42.159Z,94510.56
2017-12-03T03:59:09.632Z,94511.91
2017-12-03T04:01:36.998Z,94515.58
2017-12-03T04:04:04.679Z,94520.64
2017-12-03T04:06:32.081Z,94529.72
2017-12-03T04:08:59.454Z,94525.94
2017-12-03T04:11:26.860Z,94540.08
2017-12-03T04:13:54.228Z,94531.38
2017-12-03T04:16:21.715Z,94539.41
2017-12-03T04:18:49.249Z,94534.89
2017-12-03T04:21:16.611Z,94521.53
2017-12-03T04:23:44.168Z,94509.93
2017-12-03T04:26:11.543Z,94505.37
2017-12-03T04:28:38.969Z,94504.09
2017-12-03T04:31:06.415Z,94517.08
2017-12-03T04:33:33.830Z,94517.34
2017-12-03T04:36:01.242Z,94512.05
2017-12-03T04:38:28.623Z,94524.09
2017-12-03T04:40:56.033Z,94517.92
2017-12-03T04:43:23.612Z,94514.24
2017-12-03T04:45:51.134Z,94521.66
2017-12-03T04:48:18.522Z,94537.33
2017-12-03T04:50:46.120Z,94541.52
2017-12-03T04:53:13.595Z,94531.30
2017-12-03T04:55:41.055Z,94521.70
2017-12-03T04:58:08.766Z,94529.96
2017-12-03T05:00:36.187Z,94544.16
2017-12-03T05:03:03.851Z,94550.63
2017-12-03T05:05:31.259Z,94530.39
2017-12-03T05:07:58.625Z,94558.91
2017-12-03T05:10:26.303Z,94585.69
2017-12-03T05:12:53.714Z,94571.06
2017-12-03T05:15:21.126Z,94584.64
2017-12-03T05:17:48.490Z,94601.83
2017-12-03T05:20:16.251Z,94604.48
2017-12-03T05:22:43.703Z,94587.88
2017-12-03T05:25:11.259Z,94595.40
2017-12-03T05:27:39.080Z,94575.92
2017-12-03T05:30:06.586Z,94594.63
2017-12-03T05:32:33.958Z,94589.13
2017-12-03T05:35:01.398Z,94589.26
2017-12-03T05:37:28.799Z,94596.59
2017-12-03T05:39:56.197Z,94568.40
2017-12-03T05:42:23.572Z,94571.82
2017-12-03T05:44:52.565Z,94561.07
2017-12-03T05:47:20.269Z,94582.16
2017-12-03T05:49:47.687Z,94580.16
2017-12-03T05:52:15.314Z,94571.55
2017-12-03T05:54:42.839Z,94558.57
2017-12-03T05:57:10.222Z,94582.00
2017-12-03T05:59:37.651Z,94580.13
2017-12-03T06:02:05.021Z,94591.84
2017-12-03T06:04:32.514Z,94593.55
2017-12-03T06:07:00.405Z,94602.28
2017-12-03T06:09:28.331Z,94585.82
2017-12-03T06:11:55.674Z,94597.69
2017-12-03T06:14:23.060Z,94610.73
2017-12-03T06:16:50.455Z,94608.80
2017-12-03T06:19:17.818Z,94617.23
2017-12-03T06:21:45.384Z,94609.84
2017-12-03T06:24:12.945Z,94610.36
2017-12-03T06:26:40.487Z,94598.45
2017-12-03T06:29:07.890Z,94616.79
2017-12-03T06:31:35.252Z,94619.44
2017-12-03T06:34:02.783Z,94633.41
2017-12-03T06:36:30.191Z,94630.22
2017-12-03T06:38:57.670Z,94627.16
2017-12-03T06:41:25.587Z,94625.67
2017-12-03T06:43:52.989Z,94623.69
2017-12-03T06:46:20.481Z,94640.80
2017-12-03T06:48:47.952Z,94646.24
2017-12-03T06:51:15.321Z,94631.23
2017-12-03T06:53:42.933Z,94648.05
2017-12-03T06:56:10.659Z,94654.84
2017-12-03T06:58:38.058Z,94657.63
2017-12-03T07:01:05.448Z,94660.10
2017-12-03T07:03:32.851Z,94654.95
2017-12-03T07:06:00.244Z,94661.05
2017-12-03T07:08:29.736Z,94673.35
2017-12-03T07:10:57.356Z,94682.44
2017-12-03T07:13:24.781Z,94688.99
2017-12-03T07:15:52.191Z,94692.40
2017-12-03T07:18:19.630Z,94693.38
2017-12-03T07:20:47.174Z,94709.61
2017-12-03T07:23:14.712Z,94722.73
2017-12-03T07:25:42.172Z,94728.02
2017-12-03T07:28:09.639Z,94742.14
2017-12-03T07:30:37.008Z,94751.05
2017-12-03T07:33:04.422Z,94741.63
2017-12-03T07:35:31.921Z,94750.13
2017-12-03T07:37:59.310Z,94743.67
2017-12-03T07:40:26.704Z,94756.30
2017-12-03T07:42:54.063Z,94746.70
2017-12-03T07:45:21.427Z,94746.69
2017-12-03T07:47:48.884Z,94726.45
2017-12-03T07:50:16.251Z,94747.23
2017-12-03T07:52:43.621Z,94749.54
2017-12-03T07:55:11.089Z,94784.11
2017-12-03T07:57:38.775Z,94784.20
2017-12-03T08:00:06.155Z,94775.25
2017-12-03T08:02:33.559Z,94782.20
2017-12-03T08:05:01.562Z,94765.39
2017-12-03T08:07:28.929Z,94791.12
2017-12-03T08:09:56.408Z,94809.52
2017-12-03T08:12:23.784Z,94802.27
2017-12-03T08:14:51.220Z,94829.28
2017-12-03T08:17:18.606Z,94823.59
2017-12-03T08:19:45.966Z,94848.74
2017-12-03T08:22:13.376Z,94838.16
2017-12-03T08:24:40.780Z,94828.92
2017-12-03T08:27:08.378Z,94809.42
2017-12-03T08:29:35.834Z,94797.19
2017-12-03T08:32:04.284Z,94792.85
2017-12-03T08:34:31.635Z,94799.06
2017-12-03T08:36:59.000Z,94829.52
2017-12-03T08:39:26.407Z,94845.19
2017-12-03T08:41:53.780Z,94856.94
2017-12-03T08:44:21.162Z,94841.80
2017-12-03T08:46:48.707Z,94831.94
2017-12-03T08:49:16.454Z,94843.20
2017-12-03T08:51:43.872Z,94814.75
2017-12-03T08:54:11.316Z,94813.66
2017-12-03T08:56:38.739Z,94817.05
2017-12-03T08:59:06.188Z,94838.23
2017-12-03T09:01:33.929Z,94845.19
2017-12-03T09:04:01.352Z,94848.59
2017-12-03T09:06:28.723Z,94846.55
2017-12-03T09:08:56.419Z,94849.36
2017-12-03T09:11:23.800Z,94848.37
2017-12-03T09:13:51.600Z,94853.38
2017-12-03T09:16:19.124Z,94854.31
2017-12-03T09:18:46.567Z,94863.55
2017-12-03T09:21:14.074Z,94873.37
2017-12-03T09:23:41.470Z,94871.48
2017-12-03T09:26:08.863Z,94858.81
2017-12-03T09:28:36.263Z,94850.86
2017-12-03T09:31:03.891Z,94840.98
2017-12-03T09:33:31.335Z,94848.58
2017-12-03T09:35:58.711Z,94852.19
2017-12-03T09:38:26.098Z,94842.00
2017-12-03T09:40:53.525Z,94839.50
2017-12-03T09:43:21.004Z,94862.44
2017-12-03T09:45:48.371Z,94874.69
2017-12-03T09:48:15.789Z,94866.05
2017-12-03T09:50:43.281Z,94859.79
2017-12-03T09:53:10.675Z,94859.18
2017-12-03T09:55:38.119Z,94872.80
2017-12-03T09:58:05.512Z,94873.42
2017-12-03T10:00:32.995Z,94877.73
2017-12-03T10:03:00.429Z,94882.25
2017-12-03T10:05:27.871Z,94885.66
2017-12-03T10:07:55.304Z,94858.42
2017-12-03T10:10:22.683Z,94858.04
2017-12-03T10:12:50.087Z,94866.17
2017-12-03T10:15:17.484Z,94863.33
2017-12-03T10:17:45.019Z,94861.66
2017-12-03T10:20:12.470Z,94860.27
2017-12-03T10:22:39.855Z,94856.16
2017-12-03T10:25:07.260Z,94867.12
2017-12-03T10:27:34.635Z,94860.50
2017-12-03T10:30:02.052Z,94876.77
2017-12-03T10:32:29.428Z,94887.52
2017-12-03T10:34:56.892Z,94873.57
2017-12-03T10:37:24.295Z,94867.69
2017-12-03T10:39:52.151Z,94869.23
2017-12-03T10:42:19.506Z,94878.66
2017-12-03T10:44:47.016Z,94878.48
2017-12-03T10:47:14.522Z,94874.28
2017-12-03T10:49:41.918Z,94872.41
2017-12-03T10:52:09.282Z,94868.78
2017-12-03T10:54:37.606Z,94875.61
2017-12-03T10:57:04.967Z,94863.33
2017-12-03T10:59:32.374Z,94862.39
2017-12-03T11:01:59.770Z,94862.72
2017-12-03T11:04:27.271Z,94859.72
2017-12-03T11:06:54.863Z,94856.30
2017-12-03T11:09:22.258Z,94839.65
2017-12-03T11:11:49.751Z,94847.80
2017-12-03T11:14:17.170Z,94843.29
2017-12-03T11:16:44.538Z,94837.95
2017-12-03T11:19:12.019Z,94836.45
2017-12-03T11:21:39.387Z,94840.27
2017-12-03T11:24:06.847Z,94838.39
2017-12-03T11:26:34.355Z,94849.64
2017-12-03T11:29:01.734Z,94854.21
2017-12-03T11:31:29.277Z,94856.52
2017-12-03T11:33:56.765Z,94852.16
2017-12-03T11:36:24.126Z,94864.65
2017-12-03T11:38:52.550Z,94863.52
2017-12-03T11:41:20.001Z,94854.81
2017-12-03T11:43:47.619Z,94866.89
2017-12-03T11:46:15.028Z,94838.16
2017-12-03T11:48:42.650Z,94847.23
2017-12-03T11:51:10.111Z,94864.98
2017-12-03T11:53:37.582Z,94841.57
2017-12-03T11:56:04.986Z,94849.30
2017-12-03T11:58:32.385Z,94860.64
2017-12-03T12:00:59.757Z,94862.34
2017-12-03T12:03:27.227Z,94846.65
2017-12-03T12:05:54.663Z,94851.63
2017-12-03T12:08:22.109Z,94833.42
2017-12-03T12:10:49.650Z,94847.98
2017-12-03T12:13:17.009Z,94821.61
2017-12-03T12:15:44.621Z,94854.38
2017-12-03T12:18:11.999Z,94844.34
2017-12-03T12:20:39.454Z,94848.48
2017-12-03T12:23:06.927Z,94864.76
2017-12-03T12:25:34.345Z,94860.77
2017-12-03T12:28:01.723Z,94854.37
2017-12-03T12:30:29.356Z,94798.21
2017-12-03T12:32:56.920Z,94787.47
2017-12-03T12:35:24.294Z,94794.63
2017-12-03T12:37:51.814Z,94799.30
2017-12-03T12:40:19.912Z,94829.75
2017-12-03T12:42:47.286Z,94830.30
2017-12-03T12:45:14.979Z,94845.66
2017-12-03T12:47:42.591Z,94854.31
2017-12-03T12:50:10.587Z,94843.95
2017-12-03T12:52:38.003Z,94844.81
2017-12-03T12:55:05.640Z,94828.05
2017-12-03T12:57:33.043Z,94833.36
2017-12-03T13:00:00.593Z,94842.59
2017-12-03T13:02:28.176Z,94830.47
2017-12-03T13:04:55.627Z,94835.58
2017-12-03T13:07:23.054Z,94832.55
2017-12-03T13:09:50.458Z,94826.58
2017-12-03T13:12:18.099Z,94844.10
2017-12-03T13:14:45.523Z,94839.73
2017-12-03T13:17:13.019Z,94819.70
2017-12-03T13:19:40.486Z,94835.75
2017-12-03T13:22:07.835Z,94839.90
2017-12-03T13:24:35.256Z,94837.14
2017-12-03T13:27:02.625Z,94832.55
2017-12-03T13:29:30.044Z,94817.83
2017-12-03T13:31:57.397Z,94821.81
2017-12-03T13:34:24.802Z,94849.40
2017-12-03T13:36:52.207Z,94851.09
2017-12-03T13:39:19.603Z,94856.78
2017-12-03T13:41:46.999Z,94862.23
2017-12-03T13:44:14.558Z,94856.58
2017-12-03T13:46:41.976Z,94854.52
2017-12-03T13:49:09.366Z,94870.25
2017-12-03T13:51:36.782Z,94848.52
2017-12-03T13:54:04.238Z,94831.66
2017-12-03T13:56:31.643Z,94862.81
2017-12-03T13:58:59.083Z,94857.34
2017-12-03T14:01:26.466Z,94864.56
2017-12-03T14:03:53.869Z,94869.09
2017-12-03T14:06:21.349Z,94868.16
2017-12-03T14:08:48.751Z,94866.27
2017-12-03T14:11:16.167Z,94871.95
2017-12-03T14:13:43.570Z,94878.37
2017-12-03T14:16:11.002Z,94885.71
2017-12-03T14:18:38.379Z,94876.80
2017-12-03T14:21:05.774Z,94888.36
2017-12-03T14:23:33.189Z,94891.28
2017-12-03T14:26:00.572Z,94890.12
2017-12-03T14:28:28.064Z,94896.74
2017-12-03T14:30:55.435Z,94897.69
2017-12-03T14:33:22.857Z,94888.73
2017-12-03T14:35:50.334Z,94889.30
2017-12-03T14:38:17.918Z,94883.66
2017-12-03T14:40:45.476Z,94892.75
2017-12-03T14:43:13.010Z,94901.66
2017-12-03T14:45:40.488Z,94892.78
2017-12-03T14:48:07.876Z,94889.95
2017-12-03T14:50:35.299Z,94898.67
2017-12-03T14:53:02.691Z,94905.49
2017-12-03T14:55:30.118Z,94916.42
2017-12-03T14:57:58.534Z,94900.56
2017-12-03T15:00:25.909Z,94904.72
2017-12-03T15:02:53.319Z,94907.73
2017-12-03T15:05:20.676Z,94902.25
2017-12-03T15:07:48.127Z,94911.13
2017-12-03T15:10:15.547Z,94910.25
2017-12-03T15:12:42.972Z,94905.84
2017-12-03T15:15:10.393Z,94904.52
2017-12-03T15:17:37.928Z,94915.50
2017-12-03T15:20:05.282Z,94916.64
2017-12-03T15:22:32.684Z,94911.35
2017-12-03T15:25:00.089Z,94906.78
2017-12-03T15:27:27.541Z,94903.02
2017-12-03T15:29:54.960Z,94904.91
2017-12-03T15:32:22.413Z,94923.48
2017-12-03T15:34:49.963Z,94948.77
2017-12-03T15:37:17.457Z,94962.61
2017-12-03T15:39:44.875Z,94964.15
2017-12-03T15:42:12.403Z,94953.00
2017-12-03T15:44:39.802Z,94958.47
2017-12-03T15:47:07.227Z,94963.23
2017-12-03T15:49:34.747Z,94956.42
2017-12-03T15:52:02.424Z,94944.52
2017-12-03T15:54:29.792Z,94943.19
2017-12-03T15:56:57.282Z,94958.47
2017-12-03T15:59:24.724Z,94967.12
2017-12-03T16:01:52.075Z,94979.47
2017-12-03T16:04:19.543Z,94978.16
2017-12-03T16:06:46.984Z,94978.37
2017-12-03T16:09:14.427Z,94964.55
2017-12-03T16:11:41.802Z,94971.20
2017-12-03T16:14:09.244Z,94970.98
2017-12-03T16:16:36.777Z,94973.62
2017-12-03T16:19:04.166Z,94978.53
2017-12-03T16:21:31.566Z,94985.17
2017-12-03T16:23:59.000Z,94984.44
2017-12-03T16:26:26.507Z,94984.02
2017-12-03T16:28:53.890Z,94982.52
2017-12-03T16:31:21.303Z,94987.25
2017-12-03T16:33:48.976Z,94981.53
2017-12-03T16:36:16.362Z,94969.33
2017-12-03T16:38:43.860Z,94974.78
2017-12-03T16:41:11.275Z,94973.47
2017-12-03T16:43:38.694Z,94981.19
2017-12-03T16:46:06.167Z,94980.09
2017-12-03T16:48:33.583Z,94987.27
2017-12-03T16:51:01.021Z,94989.12
2017-12-03T16:53:28.403Z,94988.41
2017-12-03T16:55:55.814Z,94998.73
2017-12-03T16:58:23.243Z,95002.91
2017-12-03T17:00:50.700Z,95011.47
2017-12-03T17:03:18.333Z,95008.39
2017-12-03T17:05:45.799Z,95005.23
2017-12-03T17:08:13.370Z,95011.85
2017-12-03T17:10:41.020Z,95010.91
2017-12-03T17:13:08.661Z,95014.13
2017-12-03T17:15:36.097Z,95015.10
2017-12-03T17:18:03.552Z,95022.45
2017-12-03T17:20:30.996Z,95021.88
2017-12-03T17:22:58.487Z,95020.94
2017-12-03T17:25:25.852Z,95020.96
2017-12-03T17:27:53.245Z,95018.69
2017-12-03T17:30:20.719Z,95015.66
2017-12-03T17:32:48.171Z,95016.42
2017-12-03T17:35:15.668Z,95016.77
2017-12-03T17:37:43.212Z,95014.93
2017-12-03T17:40:10.723Z,95018.52
2017-12-03T17:42:38.142Z,95015.14
2017-12-03T17:45:05.543Z,95018.70
2017-12-03T17:47:33.004Z,95018.14
2017-12-03T17:50:00.400Z,95017.19
2017-12-03T17:52:27.854Z,95017.97
2017-12-03T17:54:55.262Z,95021.38
2017-12-03T17:57:22.638Z,95031.20
2017-12-03T17:59:50.076Z,95028.17
2017-12-03T18:02:17.506Z,95034.39
2017-12-03T18:04:45.069Z,95036.83
2017-12-03T18:07:12.570Z,95047.25
2017-12-03T18:09:40.002Z,95054.21
2017-12-03T18:12:07.629Z,95039.87
2017-12-03T18:14:35.476Z,95045.89
2017-12-03T18:17:03.628Z,95048.57
2017-12-03T18:19:31.031Z,95058.22
2017-12-03T18:21:58.540Z,95058.56
2017-12-03T18:24:26.184Z,95058.95
2017-12-03T18:26:53.611Z,95054.81
2017-12-03T18:29:21.354Z,95057.62
2017-12-03T18:31:48.770Z,95060.09
2017-12-03T18:34:16.142Z,95067.66
2017-12-03T18:36:43.984Z,95071.28
2017-12-03T18:39:11.493Z,95078.08
2017-12-03T18:41:39.270Z,95075.59
2017-12-03T18:44:06.731Z,95072.77
2017-12-03T18:46:34.131Z,95076.37
2017-12-03T18:49:01.829Z,95066.72
2017-12-03T18:51:29.275Z,95069.75
2017-12-03T18:53:56.885Z,95065.22
2017-12-03T18:56:24.342Z,95070.90
2017-12-03T18:58:52.191Z,95081.70
2017-12-03T19:01:19.786Z,95085.28
2017-12-03T19:03:47.449Z,95088.48
2017-12-03T19:06:15.227Z,95098.13
2017-12-03T19:08:42.763Z,95093.22
2017-12-03T19:11:10.203Z,95094.16
2017-12-03T19:13:37.646Z,95097.75
2017-12-03T19:16:05.061Z,95089.64
2017-12-03T19:18:32.479Z,95088.88
2017-12-03T19:20:59.852Z,95084.13
2017-12-03T19:23:27.379Z,95094.75
2017-12-03T19:25:54.831Z,95091.55
2017-12-03T19:28:22.324Z,95093.19
2017-12-03T19:30:49.801Z,95103.04
2017-12-03T19:33:17.221Z,95106.42
2017-12-03T19:35:44.660Z,95112.34
2017-12-03T19:38:12.127Z,95111.02
2017-12-03T19:40:39.706Z,95114.59
2017-12-03T19:43:07.478Z,95109.48
2017-12-03T19:45:34.904Z,95116.27
2017-12-03T19:48:02.340Z,95113.84
2017-12-03T19:50:29.717Z,95116.09
2017-12-03T19:52:57.655Z,95120.27
2017-12-03T19:55:25.087Z,95117.84
2017-12-03T19:57:52.854Z,95120.66
2017-12-03T20:00:20.235Z,95127.80
2017-12-03T20:02:47.609Z,95131.77
2017-12-03T20:05:15.106Z,95137.45
2017-12-03T20:07:42.538Z,95132.71
2017-12-03T20:10:10.387Z,95137.06
2017-12-03T20:12:37.752Z,95138.97
2017-12-03T20:15:05.165Z,95149.38
2017-12-03T20:17:32.540Z,95141.09
2017-12-03T20:19:59.957Z,95136.53
2017-12-03T20:22:27.742Z,95142.77
2017-12-03T20:24:55.330Z,95145.97
2017-12-03T20:27:22.779Z,95146.53
2017-12-03T20:29:50.225Z,95150.32
2017-12-03T20:32:17.626Z,95155.27
2017-12-03T20:34:45.002Z,95154.12
2017-12-03T20:37:12.707Z,95156.20
2017-12-03T20:39:41.791Z,95156.58
2017-12-03T20:42:09.222Z,95167.16
2017-12-03T20:44:36.651Z,95167.16
2017-12-03T20:47:04.210Z,95173.58
2017-12-03T20:49:31.606Z,95169.44
2017-12-03T20:51:59.030Z,95171.11
2017-12-03T20:54:28.327Z,95168.84
2017-12-03T20:56:55.743Z,95168.28
2017-12-03T20:59:23.175Z,95185.66
2017-12-03T21:01:50.665Z,95187.93
2017-12-03T21:04:18.475Z,95184.52
2017-12-03T21:06:46.239Z,95188.52
2017-12-03T21:09:14.073Z,95193.80
2017-12-03T21:11:41.623Z,95194.00
2017-12-03T21:14:08.999Z,95203.45
2017-12-03T21:16:36.502Z,95201.94
2017-12-03T21:19:04.055Z,95206.86
2017-12-03T21:21:31.744Z,95207.02
2017-12-03T21:23:59.860Z,95214.80
2017-12-03T21:26:27.349Z,95219.14
2017-12-03T21:28:54.734Z,95211.96
2017-12-03T21:31:22.109Z,95217.44
2017-12-03T21:33:49.755Z,95227.27
2017-12-03T21:36:17.678Z,95224.98
2017-12-03T21:38:45.092Z,95224.98
2017-12-03T21:41:12.622Z,95224.61
2017-12-03T21:43:40.079Z,95219.14
2017-12-03T21:46:07.499Z,95226.30
2017-12-03T21:48:35.045Z,95216.13
2017-12-03T21:51:02.429Z,95201.00
2017-12-03T21:53:30.411Z,95205.92
2017-12-03T21:55:58.273Z,95215.37
2017-12-03T21:58:25.739Z,95208.00
2017-12-03T22:00:53.387Z,95216.11
2017-12-03T22:03:21.153Z,95209.70
2017-12-03T22:05:48.920Z,95209.87
2017-12-03T22:08:16.313Z,95208.75
2017-12-03T22:10:43.913Z,95200.43
2017-12-03T22:13:11.330Z,95196.27
2017-12-03T22:15:38.739Z,95200.63
2017-12-03T22:18:06.146Z,95202.52
2017-12-03T22:20:33.615Z,95201.75
2017-12-03T22:23:00.998Z,95206.48
2017-12-03T22:25:28.410Z,95210.06
2017-12-03T22:27:55.876Z,95213.66
2017-12-03T22:30:23.976Z,95210.08
2017-12-03T22:32:51.403Z,95213.29
2017-12-03T22:35:18.831Z,95203.44
2017-12-03T22:37:46.254Z,95211.59
2017-12-03T22:40:13.637Z,95206.30
2017-12-03T22:42:41.087Z,95210.08
2017-12-03T22:45:08.472Z,95212.34
2017-12-03T22:47:35.899Z,95215.57
2017-12-03T22:50:03.469Z,95215.95
2017-12-03T22:55:04.199Z,95215.37
2017-12-03T22:57:31.647Z,95214.25
2017-12-03T22:59:59.143Z,95212.73
2017-12-03T23:02:28.160Z,95214.63
2017-12-03T23:04:55.542Z,95209.14
2017-12-03T23:07:22.957Z,95204.05
2017-12-03T23:09:50.477Z,95200.06
2017-12-03T23:12:17.974Z,95199.87
2017-12-03T23:14:45.405Z,95201.40
2017-12-03T23:17:12.997Z,95201.56
2017-12-03T23:19:40.637Z,95196.67
2017-12-03T23:22:08.455Z,95195.55
2017-12-03T23:24:36.712Z,95203.08
2017-12-03T23:27:04.091Z,95207.45
2017-12-03T23:29:31.679Z,95210.66
2017-12-03T23:31:59.579Z,95213.66
2017-12-03T23:34:26.972Z,95219.34
2017-12-03T23:36:54.423Z,95225.03
2017-12-03T23:39:21.931Z,95227.47
2017-12-03T23:41:49.315Z,95222.55
2017-12-03T23:44:16.830Z,95219.14
2017-12-03T23:46:44.206Z,95215.19
2017-12-03T23:49:11.683Z,95226.14
2017-12-03T23:51:39.122Z,95242.20
2017-12-03T23:54:06.580Z,95234.27
2017-12-03T23:56:34.098Z,95233.50
2017-12-03T23:59:01.836Z,95237.66
